Time;durP1;ratioP1;P1;durP2;ratioP2;P2;SDS_P1;SDS_P2;PMS_P1;PMS_P2;Temp;Humidity;BMP_temperature;BMP_pressure;BME280_temperature;BME280_humidity;BME280_pressure;Samples;Min_cycle;Max_cycle;Signal;HPM_P1;HPM_P2
2022/09/01 00:00:51;;;;;;;10.00;4.05;;;22.20;99.90;;;;;;5031064;28;20040;-71
2022/09/01 00:03:58;;;;;;;5.75;4.20;;;22.20;99.90;;;;;;5033708;28;20053;-71
2022/09/01 00:07:02;;;;;;;5.78;4.22;;;22.20;99.90;;;;;;5033971;28;20045;-71
2022/09/01 00:10:07;;;;;;;7.30;4.13;;;22.20;99.90;;;;;;5033513;28;20192;-71
2022/09/01 00:13:12;;;;;;;10.32;4.20;;;22.20;99.90;;;;;;5033502;28;20052;-71
2022/09/01 00:16:35;;;;;;;9.52;3.53;;;22.20;99.90;;;;;;5033531;28;20392;-71
2022/09/01 00:19:39;;;;;;;6.93;3.60;;;22.20;99.90;;;;;;5033769;28;20360;-71
2022/09/01 00:22:43;;;;;;;7.95;3.50;;;22.30;99.90;;;;;;5033593;28;20052;-71
2022/09/01 00:26:06;;;;;;;5.07;3.13;;;22.20;99.90;;;;;;5033394;28;20496;-71
2022/09/01 00:29:10;;;;;;;6.60;3.92;;;22.10;99.90;;;;;;5033445;28;20044;-71
2022/09/01 00:32:14;;;;;;;18.00;4.05;;;22.10;99.90;;;;;;5033187;28;20215;-71
2022/09/01 00:35:19;;;;;;;10.52;5.30;;;22.00;99.90;;;;;;5032476;28;20044;-71
2022/09/01 00:38:23;;;;;;;6.00;3.80;;;21.90;99.90;;;;;;5043982;28;20040;-71
2022/09/01 00:41:30;;;;;;;8.23;4.35;;;21.80;99.90;;;;;;5033398;28;20048;-71
2022/09/01 00:44:35;;;;;;;10.63;4.65;;;21.80;99.90;;;;;;5032519;28;20056;-71
2022/09/01 00:47:40;;;;;;;10.07;4.20;;;21.70;99.90;;;;;;5043505;28;20048;-71
2022/09/01 00:50:44;;;;;;;15.40;4.63;;;21.70;99.90;;;;;;5033289;28;20045;-71
2022/09/01 00:53:48;;;;;;;7.70;4.28;;;21.70;99.90;;;;;;5032652;28;20048;-70
2022/09/01 00:56:53;;;;;;;8.70;4.82;;;21.80;99.90;;;;;;5033107;28;20044;-70
2022/09/01 01:00:05;;;;;;;8.63;4.93;;;21.80;99.90;;;;;;5032761;28;20129;-70
2022/09/01 01:03:11;;;;;;;;;;;21.80;99.90;;;;;;5032848;28;20108;-70
2022/09/01 01:06:15;;;;;;;7.07;4.50;;;21.70;99.90;;;;;;5032925;28;20344;-70
2022/09/01 01:09:21;;;;;;;9.10;4.78;;;21.70;99.90;;;;;;5032898;28;20057;-70
2022/09/01 01:12:29;;;;;;;9.27;4.90;;;21.80;99.90;;;;;;5032062;28;20037;-71
2022/09/01 01:15:52;;;;;;;7.25;4.78;;;21.80;99.90;;;;;;5032724;28;20048;-71
2022/09/01 01:18:56;;;;;;;12.75;5.45;;;21.80;99.90;;;;;;5032690;28;20149;-70
2022/09/01 01:25:22;;;;;;;5.13;4.15;;;21.60;99.90;;;;;;5031710;28;20049;-71
2022/09/01 01:28:45;;;;;;;9.23;5.05;;;21.60;99.90;;;;;;5032565;28;20049;-71
2022/09/01 01:31:52;;;;;;;8.50;4.78;;;21.60;99.90;;;;;;5030934;28;20048;-71
2022/09/01 01:34:56;;;;;;;8.18;4.72;;;21.60;99.90;;;;;;5030685;28;20503;-71
2022/09/01 01:38:21;;;;;;;10.43;5.13;;;21.60;99.90;;;;;;5031346;28;20483;-70
2022/09/01 01:41:28;;;;;;;8.60;4.30;;;21.60;99.90;;;;;;5030940;28;20052;-71
2022/09/01 01:44:32;;;;;;;8.77;4.85;;;21.60;99.90;;;;;;5031613;28;20068;-71
2022/09/01 01:47:38;;;;;;;7.85;4.30;;;21.60;99.90;;;;;;5042610;28;20238;-71
2022/09/01 01:50:44;;;;;;;7.60;4.50;;;21.60;99.90;;;;;;5031116;28;20069;-71
2022/09/01 01:54:07;;;;;;;14.82;5.43;;;21.60;99.90;;;;;;5030732;28;20045;-71
2022/09/01 01:57:15;;;;;;;26.83;6.50;;;21.70;99.90;;;;;;5031616;28;20503;-71
2022/09/01 02:00:23;;;;;;;9.10;4.38;;;21.70;99.90;;;;;;5030949;28;20040;-71
2022/09/01 02:03:35;;;;;;;9.02;4.25;;;21.70;99.90;;;;;;5031362;28;20479;-71
2022/09/01 02:06:44;;;;;;;10.15;4.38;;;21.70;99.90;;;;;;5030252;28;20044;-70
2022/09/01 02:09:49;;;;;;;7.35;4.32;;;21.80;99.90;;;;;;5030722;28;20048;-71
2022/09/01 02:16:15;;;;;;;5.10;4.28;;;21.90;99.90;;;;;;5030733;28;20044;-71
2022/09/01 02:19:20;;;;;;;15.05;5.15;;;21.90;99.90;;;;;;5042012;28;20036;-71
2022/09/01 02:22:24;;;;;;;7.88;4.82;;;21.90;99.90;;;;;;5030820;28;20044;-71
2022/09/01 02:25:48;;;;;;;7.22;4.60;;;21.90;99.90;;;;;;5029828;28;20419;-71
2022/09/01 02:29:16;;;;;;;6.13;4.43;;;22.00;99.90;;;;;;5030732;28;20036;-71
2022/09/01 02:32:21;;;;;;;8.70;4.38;;;22.00;99.90;;;;;;5030091;28;20048;-71
2022/09/01 02:35:33;;;;;;;10.40;4.88;;;22.00;99.90;;;;;;5041591;28;20511;-71
2022/09/01 02:38:38;;;;;;;10.35;5.45;;;22.00;99.90;;;;;;5030106;28;20057;-71
2022/09/01 02:41:43;;;;;;;7.72;4.47;;;22.00;99.90;;;;;;5031216;28;20334;-71
2022/09/01 02:45:10;;;;;;;10.23;4.95;;;21.80;99.90;;;;;;5029268;28;20431;-71
2022/09/01 02:48:14;;;;;;;6.95;4.88;;;21.40;99.90;;;;;;5030208;28;20040;-71
2022/09/01 02:51:21;;;;;;;9.85;4.65;;;21.40;99.90;;;;;;5030204;28;20048;-71
2022/09/01 02:54:44;;;;;;;18.65;5.03;;;21.40;99.90;;;;;;5030635;28;20045;-71
2022/09/01 02:58:15;;;;;;;;;;;21.40;99.90;;;;;;5031350;28;20060;-71
2022/09/01 03:01:28;;;;;;;8.60;5.00;;;21.50;99.90;;;;;;5029732;28;19909;-71
2022/09/01 03:04:33;;;;;;;6.80;5.20;;;21.50;99.90;;;;;;5029519;28;20044;-71
2022/09/01 03:07:41;;;;;;;6.78;4.53;;;21.60;99.90;;;;;;5029665;28;20318;-71
2022/09/01 03:10:46;;;;;;;6.80;4.90;;;21.60;99.90;;;;;;5030595;28;20397;-70
2022/09/01 03:13:51;;;;;;;8.40;4.70;;;21.60;99.90;;;;;;5029278;28;20048;-71
2022/09/01 03:16:56;;;;;;;7.10;4.80;;;21.70;99.90;;;;;;5029685;28;20036;-71
2022/09/01 03:20:00;;;;;;;8.43;5.22;;;21.80;99.90;;;;;;5029333;28;20041;-71
2022/09/01 03:23:24;;;;;;;11.32;4.97;;;21.80;99.90;;;;;;5029967;28;20048;-71
2022/09/01 03:26:29;;;;;;;9.27;5.30;;;21.80;99.90;;;;;;5029841;28;20052;-71
2022/09/01 03:29:33;;;;;;;9.90;5.03;;;21.80;99.90;;;;;;5041031;28;20053;-71
2022/09/01 03:36:03;;;;;;;15.07;5.10;;;21.70;99.90;;;;;;5028613;28;20040;-72
2022/09/01 03:39:08;;;;;;;10.68;4.45;;;21.70;99.90;;;;;;5029242;28;20053;-71
2022/09/01 03:42:18;;;;;;;10.35;5.85;;;21.70;99.90;;;;;;5029391;28;20040;-71
2022/09/01 03:45:24;;;;;;;7.93;5.43;;;21.60;99.90;;;;;;5040158;28;20049;-71
2022/09/01 03:48:54;;;;;;;6.57;4.88;;;21.50;99.90;;;;;;5029969;28;20053;-71
2022/09/01 03:51:59;;;;;;;7.65;5.13;;;21.50;99.90;;;;;;5029569;28;20337;-72
2022/09/01 03:55:04;;;;;;;7.35;5.00;;;21.50;99.90;;;;;;5029112;28;20048;-72
2022/09/01 03:58:10;;;;;;;10.75;6.00;;;21.40;99.90;;;;;;5029254;28;20064;-72
2022/09/01 04:01:15;;;;;;;7.78;4.97;;;21.30;99.90;;;;;;5029036;28;20041;-71
2022/09/01 04:04:19;;;;;;;8.88;5.40;;;21.30;99.90;;;;;;5029210;28;20396;-71
2022/09/01 04:07:25;;;;;;;9.55;5.10;;;21.10;99.90;;;;;;5028951;28;20040;-71
2022/09/01 04:10:31;;;;;;;10.27;5.25;;;21.00;99.90;;;;;;5029052;28;20049;-71
2022/09/01 04:13:54;;;;;;;10.45;6.25;;;20.80;99.90;;;;;;5029128;28;20116;-71
2022/09/01 04:23:45;;;;;;;8.18;5.88;;;20.40;99.90;;;;;;5029455;28;20052;-71
2022/09/01 04:26:51;;;;;;;10.25;6.15;;;20.50;99.90;;;;;;5029893;28;20072;-71
2022/09/01 04:29:56;;;;;;;9.35;5.43;;;20.50;99.90;;;;;;5029064;28;20044;-71
2022/09/01 04:33:00;;;;;;;9.95;5.60;;;20.60;99.90;;;;;;5029565;28;20068;-70
2022/09/01 04:36:22;;;;;;;8.82;5.50;;;20.60;99.90;;;;;;5029789;28;20044;-70
2022/09/01 04:39:28;;;;;;;9.25;5.60;;;20.60;99.90;;;;;;5030098;28;20044;-70
2022/09/01 04:42:35;;;;;;;7.95;5.50;;;20.60;99.90;;;;;;5040954;28;20052;-70
2022/09/01 04:45:41;;;;;;;8.85;5.40;;;20.60;99.90;;;;;;5029965;28;20506;-70
2022/09/01 04:48:46;;;;;;;8.15;5.03;;;20.60;99.90;;;;;;5033120;28;20040;-70
2022/09/01 04:51:52;;;;;;;12.13;5.35;;;20.60;99.90;;;;;;5045030;28;20041;-70
2022/09/01 04:55:18;;;;;;;8.00;4.85;;;20.70;99.90;;;;;;5034121;28;20044;-70
2022/09/01 04:58:22;;;;;;;7.95;4.25;;;20.70;99.90;;;;;;5032912;28;20104;-70
2022/09/01 05:01:26;;;;;;;7.65;4.57;;;20.60;99.90;;;;;;5033018;28;20052;-70
2022/09/01 05:04:32;;;;;;;6.03;4.88;;;20.60;99.90;;;;;;5033580;28;20060;-71
2022/09/01 05:07:37;;;;;;;9.00;5.38;;;20.50;99.90;;;;;;5033124;28;20056;-70
2022/09/01 05:11:04;;;;;;;11.05;5.07;;;20.40;99.90;;;;;;5033109;28;20036;-70
2022/09/01 05:14:21;;;;;;;8.45;5.32;;;20.40;99.90;;;;;;5032507;28;20052;-70
2022/09/01 05:17:28;;;;;;;7.22;5.00;;;20.40;99.90;;;;;;5032441;28;20040;-70
2022/09/01 05:20:32;;;;;;;9.13;4.97;;;20.50;99.90;;;;;;5032591;28;20396;-70
2022/09/01 05:23:39;;;;;;;9.55;4.53;;;20.60;99.90;;;;;;5033141;28;20511;-71
2022/09/01 05:26:45;;;;;;;8.82;5.25;;;20.60;99.90;;;;;;5032644;28;20064;-71
2022/09/01 05:29:50;;;;;;;13.55;5.38;;;20.60;99.90;;;;;;5021338;28;20056;-71
2022/09/01 05:32:53;;;;;;;11.90;5.35;;;20.60;99.90;;;;;;5023474;28;20049;-70
2022/09/01 05:36:02;;;;;;;11.18;4.57;;;20.70;99.90;;;;;;5031245;28;20051;-70
2022/09/01 05:39:06;;;;;;;7.97;4.90;;;20.90;99.90;;;;;;5024534;28;20507;-70
2022/09/01 05:42:10;;;;;;;11.85;4.45;;;21.00;99.90;;;;;;5023382;28;20057;-70
2022/09/01 05:45:19;;;;;;;8.15;5.03;;;21.10;99.90;;;;;;5021053;28;20080;-70
2022/09/01 05:48:43;;;;;;;6.63;4.30;;;21.10;99.90;;;;;;5027609;28;20145;-70
2022/09/01 05:52:08;;;;;;;7.97;4.35;;;21.30;99.90;;;;;;5036464;28;20044;-70
2022/09/01 05:55:15;;;;;;;6.38;4.20;;;21.50;99.90;;;;;;5016902;28;20075;-70
2022/09/01 05:58:20;;;;;;;8.05;4.75;;;21.70;99.90;;;;;;5020821;28;20036;-70
2022/09/01 06:01:25;;;;;;;9.30;4.22;;;21.80;99.90;;;;;;5020559;28;20057;-70
2022/09/01 06:04:29;;;;;;;5.45;4.22;;;21.80;99.90;;;;;;5020799;28;20400;-70
2022/09/01 06:07:57;;;;;;;7.07;4.45;;;22.00;99.90;;;;;;5024922;28;20048;-70
2022/09/01 06:11:11;;;;;;;10.02;4.50;;;21.90;99.90;;;;;;5042906;28;20047;-70
2022/09/01 06:14:17;;;;;;;8.23;4.43;;;22.10;99.90;;;;;;5023842;28;20414;-70
2022/09/01 06:17:44;;;;;;;6.75;3.88;;;22.40;99.90;;;;;;5026361;28;20635;-70
2022/09/01 06:20:49;;;;;;;5.18;3.40;;;22.70;99.90;;;;;;5026676;28;20147;-70
2022/09/01 06:23:57;;;;;;;4.93;3.42;;;23.10;99.90;;;;;;5026695;28;20049;-70
2022/09/01 06:27:20;;;;;;;7.35;3.08;;;23.30;99.90;;;;;;5018981;28;20057;-71
2022/09/01 06:30:26;;;;;;;10.90;4.10;;;23.90;99.90;;;;;;5024488;28;20048;-71
2022/09/01 06:33:36;;;;;;;8.75;2.88;;;25.40;99.90;;;;;;5037524;28;20941;-72
2022/09/01 06:36:59;;;;;;;4.88;2.70;;;26.40;99.90;;;;;;5025831;28;20534;-71
2022/09/01 06:40:04;;;;;;;6.63;2.90;;;27.60;99.90;;;;;;5005619;28;20511;-71
2022/09/01 06:43:29;;;;;;;5.30;2.33;;;28.60;99.90;;;;;;5019836;28;20048;-71
2022/09/01 06:46:34;;;;;;;11.30;3.25;;;29.60;99.90;;;;;;5033973;28;20040;-72
2022/09/01 06:49:41;;;;;;;6.10;2.13;;;30.60;99.90;;;;;;5030451;28;20041;-72
2022/09/01 06:53:09;;;;;;;6.53;2.20;;;30.90;99.90;;;;;;5036565;28;20048;-72
2022/09/01 06:56:13;;;;;;;10.48;2.75;;;31.10;99.90;;;;;;5039259;28;20515;-71
2022/09/01 07:03:04;;;;;;;4.40;2.58;;;31.00;99.90;;;;;;5020168;28;20045;-71
2022/09/01 07:06:30;;;;;;;6.03;2.40;;;31.00;99.90;;;;;;5023898;28;20056;-71
2022/09/01 07:09:57;;;;;;;4.22;2.40;;;30.20;99.90;;;;;;5021154;28;20048;-71
2022/09/01 07:13:24;;;;;;;5.93;2.08;;;29.40;99.90;;;;;;5030678;28;20053;-71
2022/09/01 07:16:49;;;;;;;10.98;2.47;;;29.30;99.90;;;;;;5024038;28;20348;-72
2022/09/01 07:19:54;;;;;;;3.40;2.30;;;28.70;99.90;;;;;;5017405;28;20033;-71
2022/09/01 07:23:00;;;;;;;5.30;2.58;;;28.10;99.90;;;;;;5023434;28;20056;-71
2022/09/01 07:26:06;;;;;;;9.60;3.08;;;27.60;99.90;;;;;;5015923;28;20044;-71
2022/09/01 07:29:12;;;;;;;6.68;2.38;;;27.30;99.90;;;;;;5040892;28;20045;-71
2022/09/01 07:32:16;;;;;;;6.80;2.40;;;27.30;99.90;;;;;;5029716;28;20044;-72
2022/09/01 07:35:21;;;;;;;5.80;2.40;;;27.50;99.90;;;;;;5015328;28;20511;-71
2022/09/01 07:38:27;;;;;;;6.40;2.28;;;27.70;99.90;;;;;;5024523;28;20254;-71
2022/09/01 07:46:04;;;;;;;4.55;2.10;;;28.70;99.90;;;;;;5016016;28;20049;-71
2022/09/01 07:49:28;;;;;;;3.28;1.90;;;31.20;99.90;;;;;;5030686;28;20037;-71
2022/09/01 07:52:39;;;;;;;5.82;2.33;;;32.60;99.90;;;;;;5019172;28;20503;-72
2022/09/01 07:55:45;;;;;;;5.45;1.73;;;33.40;99.90;;;;;;5024715;28;20392;-72
2022/09/01 08:02:21;;;;;;;3.63;2.08;;;34.80;98.90;;;;;;5028038;28;20040;-71
2022/09/01 08:05:27;;;;;;;4.50;1.58;;;35.50;97.50;;;;;;5012377;28;20384;-73
2022/09/01 08:08:34;;;;;;;4.13;1.55;;;35.50;96.90;;;;;;5023531;28;20041;-72
2022/09/01 08:11:38;;;;;;;2.50;1.42;;;36.50;96.10;;;;;;5025033;28;20048;-72
2022/09/01 08:14:44;;;;;;;2.80;1.40;;;36.00;95.60;;;;;;5025371;28;20049;-71
2022/09/01 08:17:48;;;;;;;4.30;1.40;;;36.00;95.40;;;;;;5014081;28;20496;-71
2022/09/01 08:20:52;;;;;;;4.20;1.17;;;37.20;95.20;;;;;;5022270;28;20040;-72
2022/09/01 08:24:29;;;;;;;4.93;1.85;;;39.20;93.00;;;;;;5034358;28;20052;-72
2022/09/01 08:27:37;;;;;;;4.50;1.38;;;40.70;90.70;;;;;;5027585;28;20075;-72
2022/09/01 08:34:11;;;;;;;7.63;1.30;;;42.40;85.70;;;;;;5025965;28;21049;-70
2022/09/01 08:37:16;;;;;;;2.63;1.20;;;42.70;84.10;;;;;;5015930;28;20040;-70
2022/09/01 08:40:22;;;;;;;3.60;1.15;;;43.30;80.20;;;;;;5040125;28;20052;-72
2022/09/01 08:44:10;;;;;;;2.72;0.80;;;43.40;80.10;;;;;;5028813;28;20044;-71
2022/09/01 08:47:18;;;;;;;4.72;1.20;;;44.00;77.00;;;;;;5020299;28;20048;-71
2022/09/01 08:50:59;;;;;;;2.72;1.08;;;44.20;76.10;;;;;;5024866;28;20404;-71
2022/09/01 08:54:33;;;;;;;1.83;1.05;;;45.10;74.00;;;;;;5020223;28;20036;-70
2022/09/01 08:57:41;;;;;;;1.23;0.90;;;45.90;72.10;;;;;;5030022;28;20047;-70
2022/09/01 09:01:30;;;;;;;1.85;0.70;;;45.90;71.20;;;;;;5019424;28;20057;-70
2022/09/01 09:04:46;;;;;;;2.83;0.80;;;46.00;69.70;;;;;;5023267;28;20388;-71
2022/09/01 09:08:19;;;;;;;1.95;0.98;;;45.20;69.60;;;;;;5015561;28;20044;-71
2022/09/01 09:11:41;;;;;;;2.92;0.88;;;45.10;69.90;;;;;;5016270;28;20125;-71
2022/09/01 09:14:49;;;;;;;3.60;1.00;;;44.80;68.60;;;;;;5014619;28;20389;-72
2022/09/01 09:18:17;;;;;;;2.20;1.00;;;44.90;69.60;;;;;;5014296;28;20048;-71
2022/09/01 09:22:00;;;;;;;1.98;1.10;;;45.50;68.10;;;;;;5036578;28;20040;-71
2022/09/01 09:25:14;;;;;;;2.72;1.10;;;45.10;67.70;;;;;;5014629;28;20052;-71
2022/09/01 09:28:18;;;;;;;2.05;1.08;;;44.20;69.20;;;;;;5017997;28;20239;-70
2022/09/01 09:31:37;;;;;;;1.30;1.02;;;43.80;68.90;;;;;;5023103;28;20408;-71
2022/09/01 09:34:42;;;;;;;2.88;1.08;;;43.60;69.00;;;;;;5027774;28;20044;-71
2022/09/01 09:37:47;;;;;;;1.83;1.20;;;44.50;68.50;;;;;;5031749;28;20045;-71
2022/09/01 09:41:12;;;;;;;3.55;0.90;;;45.60;66.70;;;;;;5030944;28;20048;-72
2022/09/01 09:44:29;;;;;;;1.55;1.33;;;45.40;65.90;;;;;;5026780;28;21111;-71
2022/09/01 09:47:44;;;;;;;3.13;1.30;;;44.60;67.90;;;;;;5019647;28;20045;-70
2022/09/01 09:51:07;;;;;;;2.65;1.20;;;44.80;67.70;;;;;;5022340;28;20048;-71
2022/09/01 09:54:32;;;;;;;3.22;1.10;;;45.00;66.20;;;;;;5021101;28;20040;-72
2022/09/01 09:57:59;;;;;;;2.03;1.10;;;44.80;66.80;;;;;;5018378;28;20040;-72
2022/09/01 10:04:49;;;;;;;1.50;1.08;;;47.10;65.10;;;;;;5023347;28;20060;-72
2022/09/01 10:07:55;;;;;;;4.00;1.10;;;47.70;63.70;;;;;;5017045;28;20052;-71
2022/09/01 10:11:48;;;;;;;3.45;1.42;;;46.10;63.40;;;;;;5023771;28;20037;-71
2022/09/01 10:15:11;;;;;;;1.40;1.20;;;43.80;66.00;;;;;;5019206;28;20049;-71
2022/09/01 10:18:19;;;;;;;2.83;1.30;;;44.20;66.10;;;;;;5018106;28;20044;-71
2022/09/01 10:21:36;;;;;;;1.98;1.30;;;44.80;65.40;;;;;;5016446;28;20045;-71
2022/09/01 10:24:40;;;;;;;4.82;1.30;;;45.30;65.70;;;;;;5015536;28;20045;-71
2022/09/01 10:27:48;;;;;;;1.48;1.23;;;46.10;64.40;;;;;;5017688;28;20045;-71
2022/09/01 10:30:55;;;;;;;1.17;1.00;;;46.60;64.10;;;;;;5023057;28;20053;-73
2022/09/01 10:34:02;;;;;;;1.52;1.23;;;47.00;61.60;;;;;;5024670;28;20507;-72
2022/09/01 10:37:07;;;;;;;3.63;1.33;;;47.50;61.50;;;;;;5022407;28;20045;-73
2022/09/01 10:40:44;;;;;;;3.60;1.30;;;47.50;62.00;;;;;;5026998;28;20037;-71
2022/09/01 10:44:07;;;;;;;2.22;1.30;;;46.40;62.50;;;;;;5018119;28;20052;-71
2022/09/01 10:47:23;;;;;;;2.08;1.48;;;45.40;63.00;;;;;;5017846;28;20052;-72
2022/09/01 10:50:31;;;;;;;2.65;1.65;;;45.40;62.60;;;;;;5016090;28;20347;-71
2022/09/01 10:53:35;;;;;;;8.75;1.90;;;45.50;63.50;;;;;;5015258;28;20057;-72
2022/09/01 10:57:17;;;;;;;2.55;1.63;;;45.10;63.40;;;;;;5017579;28;20409;-73
2022/09/01 11:00:22;;;;;;;3.53;1.65;;;45.10;63.00;;;;;;5032010;28;20036;-75
2022/09/01 11:03:38;;;;;;;4.15;1.67;;;44.80;63.20;;;;;;5011140;28;20052;-71
2022/09/01 11:07:03;;;;;;;3.38;1.70;;;44.80;63.30;;;;;;5011788;28;20057;-76
2022/09/01 11:10:31;;;;;;;4.28;1.55;;;44.90;63.00;;;;;;5011339;28;20049;-74
2022/09/01 11:13:45;;;;;;;5.72;1.50;;;44.50;61.70;;;;;;5011140;28;20389;-72
2022/09/01 11:17:16;;;;;;;2.13;1.42;;;43.60;62.80;;;;;;5011327;28;20045;-74
2022/09/01 11:20:36;;;;;;;3.65;1.67;;;43.20;62.70;;;;;;5011762;28;20488;-72
2022/09/01 11:23:40;;;;;;;2.78;1.40;;;42.60;64.20;;;;;;5011072;28;20065;-71
2022/09/01 11:26:46;;;;;;;3.47;1.55;;;42.60;63.50;;;;;;5011242;28;20049;-72
2022/09/01 11:29:57;;;;;;;2.17;1.60;;;42.50;63.50;;;;;;5011181;28;20052;-72
2022/09/01 11:33:56;;;;;;;2.28;1.20;;;42.60;64.10;;;;;;5010298;28;20040;-73
2022/09/01 11:37:00;;;;;;;3.22;1.67;;;41.90;64.80;;;;;;5011329;28;20049;-72
2022/09/01 11:40:09;;;;;;;3.33;1.70;;;42.20;65.10;;;;;;5011064;28;20057;-72
2022/09/01 11:43:15;;;;;;;1.83;1.70;;;42.10;65.10;;;;;;5010526;28;20040;-71
2022/09/01 11:46:42;;;;;;;3.80;1.70;;;41.90;65.90;;;;;;5011297;28;20057;-70
2022/09/01 11:53:22;;;;;;;2.00;1.40;;;42.30;65.50;;;;;;5011010;28;20045;-73
2022/09/01 11:56:27;;;;;;;3.38;1.40;;;42.90;63.80;;;;;;5012367;28;20049;-75
2022/09/01 11:59:36;;;;;;;2.33;1.55;;;43.30;62.70;;;;;;5014671;28;20591;-72
2022/09/01 12:02:51;;;;;;;1.33;1.02;;;43.20;62.00;;;;;;5014788;28;20048;-73
2022/09/01 12:06:02;;;;;;;2.40;1.05;;;43.20;62.20;;;;;;5014757;28;20492;-72
2022/09/01 12:09:06;;;;;;;1.48;1.00;;;42.80;62.30;;;;;;5014390;28;20056;-74
2022/09/01 12:12:34;;;;;;;1.70;1.05;;;43.40;61.60;;;;;;5014902;28;20399;-73
2022/09/01 12:15:43;;;;;;;1.63;1.02;;;44.10;61.80;;;;;;5014445;28;20045;-72
2022/09/01 12:18:52;;;;;;;1.10;0.70;;;43.70;61.10;;;;;;5014542;28;20499;-72
2022/09/01 12:22:14;;;;;;;4.25;0.60;;;42.90;60.00;;;;;;5013863;28;20053;-72
2022/09/01 12:25:38;;;;;;;0.88;0.73;;;41.70;60.60;;;;;;5014097;28;20048;-73
2022/09/01 12:28:43;;;;;;;1.77;0.35;;;40.70;60.80;;;;;;5014470;28;20060;-71
2022/09/01 12:31:49;;;;;;;1.58;0.38;;;39.80;62.00;;;;;;5014336;28;20057;-72
2022/09/01 12:35:02;;;;;;;0.90;0.35;;;39.50;63.10;;;;;;5013555;28;20045;-72
2022/09/01 12:38:21;;;;;;;1.60;0.57;;;39.30;63.30;;;;;;5014159;28;20081;-75
2022/09/01 12:41:33;;;;;;;0.63;0.57;;;37.70;64.30;;;;;;5013922;28;20037;-72
2022/09/01 12:44:37;;;;;;;0.40;0.40;;;36.50;66.00;;;;;;5013724;28;20049;-70
2022/09/01 12:47:46;;;;;;;1.13;0.65;;;35.70;67.50;;;;;;5013880;28;20049;-72
2022/09/01 12:50:51;;;;;;;0.77;0.63;;;34.60;68.50;;;;;;5013436;28;20053;-72
2022/09/01 12:53:58;;;;;;;1.30;0.70;;;33.30;70.50;;;;;;5013552;28;20049;-72
2022/09/01 12:57:02;;;;;;;1.08;0.60;;;33.40;71.40;;;;;;5013428;28;20385;-73
2022/09/01 13:00:35;;;;;;;1.55;0.75;;;35.00;70.60;;;;;;5013256;28;20057;-76
2022/09/01 13:03:58;;;;;;;5.13;0.80;;;36.20;69.00;;;;;;5013399;28;20384;-73
2022/09/01 13:07:06;;;;;;;7.57;0.93;;;36.10;69.00;;;;;;5012612;28;20065;-73
2022/09/01 13:13:34;;;;;;;3.15;0.85;;;37.60;67.70;;;;;;5013356;28;20385;-74
2022/09/01 13:16:38;;;;;;;2.47;0.65;;;38.50;66.20;;;;;;5013379;28;20068;-72
2022/09/01 13:19:42;;;;;;;1.52;0.57;;;39.30;65.80;;;;;;5013400;28;20044;-72
2022/09/01 13:23:05;;;;;;;3.63;0.70;;;39.70;64.80;;;;;;5013322;28;20496;-74
2022/09/01 13:26:30;;;;;;;0.65;0.50;;;40.00;64.90;;;;;;5013414;28;20404;-74
2022/09/01 13:29:33;;;;;;;0.40;0.40;;;39.50;64.90;;;;;;5012926;28;20041;-72
2022/09/01 13:32:37;;;;;;;1.33;0.43;;;39.10;64.60;;;;;;5013346;28;20053;-74
2022/09/01 13:36:02;;;;;;;3.70;0.65;;;38.50;65.60;;;;;;5013201;28;20084;-74
2022/09/01 13:39:24;;;;;;;3.13;0.50;;;37.60;66.30;;;;;;5012889;28;20200;-73
2022/09/01 13:42:28;;;;;;;1.05;0.63;;;37.30;67.10;;;;;;5012944;28;20523;-74
2022/09/01 13:45:32;;;;;;;1.52;0.85;;;37.30;67.90;;;;;;5012785;28;20056;-73
2022/09/01 13:48:37;;;;;;;3.25;0.60;;;36.80;68.10;;;;;;5013340;28;20045;-75
2022/09/01 13:51:41;;;;;;;4.63;0.77;;;36.20;68.90;;;;;;5013041;28;20045;-73
2022/09/01 13:54:46;;;;;;;1.45;0.68;;;35.50;69.50;;;;;;5012421;28;20048;-74
2022/09/01 13:57:50;;;;;;;0.63;0.50;;;35.50;70.90;;;;;;5012573;28;20033;-73
2022/09/01 14:01:32;;;;;;;1.65;0.70;;;34.60;70.90;;;;;;5012716;28;20045;-74
2022/09/01 14:04:36;;;;;;;1.05;0.60;;;34.10;71.70;;;;;;5012254;28;20061;-72
2022/09/01 14:07:40;;;;;;;1.15;0.63;;;33.40;71.70;;;;;;5012414;28;20056;-73
2022/09/01 14:10:49;;;;;;;1.98;0.70;;;32.90;72.60;;;;;;5012096;28;20033;-73
2022/09/01 14:13:53;;;;;;;3.22;0.80;;;32.10;73.60;;;;;;5012418;28;20504;-74
2022/09/01 14:16:57;;;;;;;0.77;0.70;;;31.50;74.20;;;;;;5013044;28;20067;-72
2022/09/01 14:20:05;;;;;;;3.10;0.85;;;31.00;74.70;;;;;;5011845;28;20056;-73
2022/09/01 14:23:28;;;;;;;1.63;1.15;;;30.70;75.30;;;;;;5012071;28;20044;-73
2022/09/01 14:26:32;;;;;;;1.27;0.80;;;30.40;76.60;;;;;;5012232;28;20056;-72
2022/09/01 14:29:36;;;;;;;1.80;0.80;;;30.10;77.10;;;;;;5012093;28;20052;-73
2022/09/01 14:32:59;;;;;;;1.38;0.90;;;29.90;77.00;;;;;;5012274;28;20404;-72
2022/09/01 14:36:21;;;;;;;1.58;0.80;;;30.00;77.50;;;;;;5011884;28;20052;-73
2022/09/01 14:39:25;;;;;;;1.02;0.90;;;29.80;78.90;;;;;;5012086;28;20044;-72
2022/09/01 14:42:30;;;;;;;1.73;1.08;;;29.60;79.20;;;;;;5011993;28;20057;-72
2022/09/01 14:45:36;;;;;;;1.05;0.85;;;29.60;79.30;;;;;;5011877;28;20045;-73
2022/09/01 14:49:00;;;;;;;1.63;1.00;;;29.70;80.10;;;;;;5011800;28;20056;-72
2022/09/01 14:52:06;;;;;;;0.80;0.80;;;29.90;79.30;;;;;;5012101;28;20049;-72
2022/09/01 14:55:11;;;;;;;2.03;1.20;;;29.90;79.10;;;;;;5011657;28;20056;-73
2022/09/01 14:58:15;;;;;;;5.03;0.85;;;29.80;79.20;;;;;;5011166;28;20114;-72
2022/09/01 15:01:21;;;;;;;2.25;0.90;;;29.80;78.70;;;;;;5011285;28;20045;-71
2022/09/01 15:04:44;;;;;;;1.00;0.90;;;30.00;78.70;;;;;;5011352;28;20041;-71
2022/09/01 15:07:49;;;;;;;1.10;0.70;;;29.90;78.70;;;;;;5011454;28;20049;-72
2022/09/01 15:10:53;;;;;;;1.85;0.90;;;30.00;78.80;;;;;;5011642;28;20049;-72
2022/09/01 15:13:57;;;;;;;2.00;0.80;;;30.10;78.70;;;;;;5011345;28;20052;-72
2022/09/01 15:17:20;;;;;;;1.35;0.80;;;29.80;78.20;;;;;;5011048;28;20045;-71
2022/09/01 15:23:49;;;;;;;2.22;0.80;;;30.50;78.00;;;;;;5010994;28;20045;-71
2022/09/01 15:26:53;;;;;;;1.80;0.90;;;30.70;76.50;;;;;;5011121;28;20508;-71
2022/09/01 15:30:37;;;;;;;8.68;1.38;;;30.70;76.10;;;;;;5010580;28;20049;-71
2022/09/01 15:34:00;;;;;;;1.95;1.02;;;30.50;79.30;;;;;;5010891;28;20049;-71
2022/09/01 15:37:05;;;;;;;1.42;0.82;;;30.70;79.20;;;;;;5010574;28;20048;-73
2022/09/01 15:40:10;;;;;;;0.90;0.88;;;30.80;80.30;;;;;;5011026;28;20041;-72
2022/09/01 15:43:14;;;;;;;1.17;1.00;;;30.70;80.00;;;;;;5010733;28;20049;-73
2022/09/01 15:46:18;;;;;;;3.22;1.10;;;30.10;80.20;;;;;;5011096;28;20048;-72
2022/09/01 15:49:22;;;;;;;4.35;1.38;;;29.60;81.30;;;;;;5010322;28;20393;-72
2022/09/01 15:52:27;;;;;;;1.65;1.10;;;28.80;82.90;;;;;;5010932;28;20496;-72
2022/09/01 15:55:58;;;;;;;2.65;1.30;;;28.10;84.20;;;;;;5010447;28;20503;-73
2022/09/01 15:59:04;;;;;;;3.55;1.45;;;28.60;86.40;;;;;;5010562;28;20584;-72
2022/09/01 16:02:27;;;;;;;2.60;1.33;;;28.40;88.20;;;;;;5010894;28;20049;-72
2022/09/01 16:05:33;;;;;;;3.28;1.38;;;28.40;88.30;;;;;;5010140;28;20045;-71
2022/09/01 16:08:39;;;;;;;2.63;1.05;;;28.40;88.00;;;;;;5010811;28;20057;-72
2022/09/01 16:11:43;;;;;;;2.53;1.25;;;28.10;89.00;;;;;;5010554;28;20049;-72
2022/09/01 16:18:48;;;;;;;2.13;1.13;;;28.10;88.00;;;;;;5010814;28;20049;-73
2022/09/01 16:22:12;;;;;;;2.13;1.48;;;28.40;86.40;;;;;;5011461;28;20233;-73
2022/09/01 16:25:28;;;;;;;4.47;1.50;;;28.70;87.10;;;;;;5011255;28;20061;-73
2022/09/01 16:28:36;;;;;;;3.05;1.15;;;28.90;86.80;;;;;;5011024;28;20052;-73
2022/09/01 16:31:41;;;;;;;2.95;1.70;;;29.00;86.40;;;;;;5010909;28;20045;-72
2022/09/01 16:34:47;;;;;;;2.85;1.30;;;29.00;87.00;;;;;;5009892;28;20049;-71
2022/09/01 16:38:33;;;;;;;2.42;1.40;;;28.30;88.30;;;;;;5010328;28;20045;-72
2022/09/01 16:41:57;;;;;;;3.78;1.83;;;27.80;90.10;;;;;;5010637;28;20041;-72
2022/09/01 16:45:24;;;;;;;1.88;1.33;;;27.70;90.00;;;;;;5013400;28;20049;-65
2022/09/01 16:48:46;;;;;;;1.98;1.35;;;27.60;90.60;;;;;;5014165;28;20045;-65
2022/09/01 16:52:07;;;;;;;3.75;1.30;;;27.60;90.80;;;;;;5013776;28;20400;-65
2022/09/01 16:55:51;;;;;;;1.67;1.30;;;27.60;90.70;;;;;;5013613;28;20061;-65
2022/09/01 16:59:14;;;;;;;3.47;1.30;;;27.60;91.40;;;;;;5013993;28;20385;-64
2022/09/01 17:02:57;;;;;;;1.67;1.35;;;27.60;91.00;;;;;;5013415;28;20053;-65
2022/09/01 17:06:13;;;;;;;3.55;1.88;;;27.60;91.00;;;;;;5013395;28;20056;-65
2022/09/01 17:09:31;;;;;;;6.25;1.55;;;27.30;91.20;;;;;;5013890;28;20048;-65
2022/09/01 17:12:46;;;;;;;3.38;1.40;;;27.10;91.30;;;;;;5013921;28;20045;-65
2022/09/01 17:16:05;;;;;;;1.10;1.00;;;26.90;91.50;;;;;;5013483;28;20049;-65
2022/09/01 17:19:16;;;;;;;1.52;1.40;;;26.80;90.20;;;;;;5013765;28;20512;-66
2022/09/01 17:22:21;;;;;;;4.85;1.30;;;26.60;90.80;;;;;;5013627;28;20049;-65
2022/09/01 17:25:32;;;;;;;2.78;1.58;;;26.50;91.80;;;;;;5013528;28;20429;-64
2022/09/01 17:28:50;;;;;;;3.10;1.57;;;26.30;92.50;;;;;;5013559;28;20045;-65